sensor_id;sensor_type;location;lat;lon;timestamp;pressure;altitude;pressure_sealevel;temperature;humidity
11810;BME280;5962;41.566;23.734;2024-03-08T00:00:04;95272.94;;;8.15;100.00
11810;BME280;5962;41.566;23.734;2024-03-08T00:02:36;95275.44;;;8.10;100.00
11810;BME280;5962;41.566;23.734;2024-03-08T00:05:05;95272.47;;;8.06;100.00
11810;BME280;5962;41.566;23.734;2024-03-08T00:07:35;95265.91;;;7.97;100.00
11810;BME280;5962;41.566;23.734;2024-03-08T00:10:04;95267.59;;;7.92;100.00
11810;BME280;5962;41.566;23.734;2024-03-08T00:12:33;95267.81;;;7.90;100.00
11810;BME280;5962;41.566;23.734;2024-03-08T00:15:02;95264.25;;;7.85;100.00
11810;BME280;5962;41.566;23.734;2024-03-08T00:17:30;95266.31;;;7.83;100.00
11810;BME280;5962;41.566;23.734;2024-03-08T00:19:59;95266.75;;;7.80;100.00
11810;BME280;5962;41.566;23.734;2024-03-08T00:22:27;95259.66;;;7.80;100.00
11810;BME280;5962;41.566;23.734;2024-03-08T00:24:57;95256.69;;;7.77;100.00
11810;BME280;5962;41.566;23.734;2024-03-08T00:27:25;95254.03;;;7.77;100.00
11810;BME280;5962;41.566;23.734;2024-03-08T00:29:53;95254.03;;;7.77;100.00
11810;BME280;5962;41.566;23.734;2024-03-08T00:32:22;95254.25;;;7.75;100.00
11810;BME280;5962;41.566;23.734;2024-03-08T00:34:51;95254.59;;;7.79;100.00
11810;BME280;5962;41.566;23.734;2024-03-08T00:37:20;95249.56;;;7.77;100.00
11810;BME280;5962;41.566;23.734;2024-03-08T00:39:48;95245.75;;;7.73;100.00
11810;BME280;5962;41.566;23.734;2024-03-08T00:42:17;95252.88;;;7.73;100.00
11810;BME280;5962;41.566;23.734;2024-03-08T00:44:45;95251.84;;;7.74;100.00
11810;BME280;5962;41.566;23.734;2024-03-08T00:47:14;95250.81;;;7.75;100.00
11810;BME280;5962;41.566;23.734;2024-03-08T00:49:44;95247.28;;;7.81;100.00
11810;BME280;5962;41.566;23.734;2024-03-08T00:52:13;95249.13;;;7.80;100.00
11810;BME280;5962;41.566;23.734;2024-03-08T00:54:41;95237.31;;;7.83;100.00
11810;BME280;5962;41.566;23.734;2024-03-08T00:57:10;95241.09;;;7.87;100.00
11810;BME280;5962;41.566;23.734;2024-03-08T00:59:38;95235.16;;;7.91;100.00
11810;BME280;5962;41.566;23.734;2024-03-08T01:02:06;95230.88;;;7.79;100.00
11810;BME280;5962;41.566;23.734;2024-03-08T01:04:35;95229.06;;;7.79;100.00
11810;BME280;5962;41.566;23.734;2024-03-08T01:07:05;95232.00;;;7.71;100.00
11810;BME280;5962;41.566;23.734;2024-03-08T01:09:33;95229.56;;;7.58;100.00
11810;BME280;5962;41.566;23.734;2024-03-08T01:12:01;95234.22;;;7.45;100.00
11810;BME280;5962;41.566;23.734;2024-03-08T01:14:29;95224.22;;;7.36;100.00
11810;BME280;5962;41.566;23.734;2024-03-08T01:16:57;95233.81;;;7.30;100.00
11810;BME280;5962;41.566;23.734;2024-03-08T01:19:25;95226.78;;;7.24;100.00
11810;BME280;5962;41.566;23.734;2024-03-08T01:21:53;95225.41;;;7.22;100.00
11810;BME280;5962;41.566;23.734;2024-03-08T01:24:24;95228.72;;;7.17;100.00
11810;BME280;5962;41.566;23.734;2024-03-08T01:26:53;95229.81;;;7.28;100.00
11810;BME280;5962;41.566;23.734;2024-03-08T01:29:21;95223.28;;;7.12;100.00
11810;BME280;5962;41.566;23.734;2024-03-08T01:31:49;95223.63;;;7.04;100.00
11810;BME280;5962;41.566;23.734;2024-03-08T01:34:19;95219.97;;;6.87;100.00
11810;BME280;5962;41.566;23.734;2024-03-08T01:36:47;95225.31;;;6.81;100.00
11810;BME280;5962;41.566;23.734;2024-03-08T01:39:15;95231.25;;;6.76;100.00
11810;BME280;5962;41.566;23.734;2024-03-08T01:41:45;95232.91;;;6.71;100.00
11810;BME280;5962;41.566;23.734;2024-03-08T01:44:13;95237.06;;;6.60;100.00
11810;BME280;5962;41.566;23.734;2024-03-08T01:46:44;95235.63;;;6.64;100.00
11810;BME280;5962;41.566;23.734;2024-03-08T01:49:12;95242.06;;;6.68;100.00
11810;BME280;5962;41.566;23.734;2024-03-08T01:51:42;95238.22;;;6.47;100.00
11810;BME280;5962;41.566;23.734;2024-03-08T01:54:10;95239.47;;;6.44;100.00
11810;BME280;5962;41.566;23.734;2024-03-08T01:56:39;95237.22;;;6.48;100.00
11810;BME280;5962;41.566;23.734;2024-03-08T01:59:09;95241.63;;;6.53;100.00
11810;BME280;5962;41.566;23.734;2024-03-08T02:01:37;95245.22;;;6.35;100.00
11810;BME280;5962;41.566;23.734;2024-03-08T02:04:06;95246.59;;;6.19;100.00
11810;BME280;5962;41.566;23.734;2024-03-08T02:06:34;95232.53;;;6.07;100.00
11810;BME280;5962;41.566;23.734;2024-03-08T02:09:02;95256.41;;;6.06;100.00
11810;BME280;5962;41.566;23.734;2024-03-08T02:11:32;95258.03;;;5.82;100.00
11810;BME280;5962;41.566;23.734;2024-03-08T02:14:01;95261.56;;;5.63;100.00
11810;BME280;5962;41.566;23.734;2024-03-08T02:16:30;95263.84;;;5.54;100.00
11810;BME280;5962;41.566;23.734;2024-03-08T02:18:59;95261.91;;;5.43;100.00
11810;BME280;5962;41.566;23.734;2024-03-08T02:21:29;95264.69;;;5.48;100.00
11810;BME280;5962;41.566;23.734;2024-03-08T02:23:58;95269.97;;;5.41;100.00
11810;BME280;5962;41.566;23.734;2024-03-08T02:26:26;95274.47;;;5.34;100.00
11810;BME280;5962;41.566;23.734;2024-03-08T02:28:55;95274.03;;;5.37;100.00
11810;BME280;5962;41.566;23.734;2024-03-08T02:31:23;95279.69;;;5.41;100.00
11810;BME280;5962;41.566;23.734;2024-03-08T02:33:51;95277.25;;;5.39;100.00
11810;BME280;5962;41.566;23.734;2024-03-08T02:36:19;95277.66;;;5.43;100.00
11810;BME280;5962;41.566;23.734;2024-03-08T02:38:49;95271.84;;;5.34;100.00
11810;BME280;5962;41.566;23.734;2024-03-08T02:41:17;95277.09;;;5.34;100.00
11810;BME280;5962;41.566;23.734;2024-03-08T02:43:45;95277.47;;;5.38;100.00
11810;BME280;5962;41.566;23.734;2024-03-08T02:46:13;95283.75;;;5.37;100.00
11810;BME280;5962;41.566;23.734;2024-03-08T02:48:42;95285.38;;;5.31;100.00
11810;BME280;5962;41.566;23.734;2024-03-08T02:51:10;95281.38;;;5.29;100.00
11810;BME280;5962;41.566;23.734;2024-03-08T02:53:38;95290.25;;;5.28;100.00
11810;BME280;5962;41.566;23.734;2024-03-08T02:56:07;95288.03;;;5.25;100.00
11810;BME280;5962;41.566;23.734;2024-03-08T02:58:39;95295.91;;;5.25;100.00
11810;BME280;5962;41.566;23.734;2024-03-08T03:01:07;95290.69;;;5.18;100.00
11810;BME280;5962;41.566;23.734;2024-03-08T03:03:36;95294.94;;;5.19;100.00
11810;BME280;5962;41.566;23.734;2024-03-08T03:06:04;95291.94;;;5.16;100.00
11810;BME280;5962;41.566;23.734;2024-03-08T03:08:33;95300.44;;;5.05;100.00
11810;BME280;5962;41.566;23.734;2024-03-08T03:11:01;95299.25;;;5.01;100.00
11810;BME280;5962;41.566;23.734;2024-03-08T03:13:31;95299.41;;;5.06;100.00
11810;BME280;5962;41.566;23.734;2024-03-08T03:16:00;95300.44;;;5.05;100.00
11810;BME280;5962;41.566;23.734;2024-03-08T03:18:28;95310.75;;;5.06;100.00
11810;BME280;5962;41.566;23.734;2024-03-08T03:20:56;95304.63;;;5.12;100.00
11810;BME280;5962;41.566;23.734;2024-03-08T03:23:24;95300.59;;;5.16;100.00
11810;BME280;5962;41.566;23.734;2024-03-08T03:25:53;95308.44;;;5.23;100.00
11810;BME280;5962;41.566;23.734;2024-03-08T03:28:23;95306.00;;;5.28;100.00
11810;BME280;5962;41.566;23.734;2024-03-08T03:30:53;95307.41;;;5.30;100.00
11810;BME280;5962;41.566;23.734;2024-03-08T03:33:21;95307.56;;;5.42;100.00
11810;BME280;5962;41.566;23.734;2024-03-08T03:35:49;95297.28;;;5.34;100.00
11810;BME280;5962;41.566;23.734;2024-03-08T03:38:18;95301.91;;;5.38;100.00
11810;BME280;5962;41.566;23.734;2024-03-08T03:40:50;95310.94;;;5.49;100.00
11810;BME280;5962;41.566;23.734;2024-03-08T03:43:19;95315.97;;;5.50;100.00
11810;BME280;5962;41.566;23.734;2024-03-08T03:45:47;95310.91;;;5.55;100.00
11810;BME280;5962;41.566;23.734;2024-03-08T03:48:16;95305.41;;;5.63;100.00
11810;BME280;5962;41.566;23.734;2024-03-08T03:50:44;95300.56;;;5.66;100.00
11810;BME280;5962;41.566;23.734;2024-03-08T03:53:12;95306.97;;;5.70;100.00
11810;BME280;5962;41.566;23.734;2024-03-08T03:55:40;95305.53;;;5.74;100.00
11810;BME280;5962;41.566;23.734;2024-03-08T03:58:08;95289.22;;;5.66;100.00
11810;BME280;5962;41.566;23.734;2024-03-08T04:00:36;95296.44;;;5.77;100.00
11810;BME280;5962;41.566;23.734;2024-03-08T04:03:04;95296.88;;;5.74;100.00
11810;BME280;5962;41.566;23.734;2024-03-08T04:05:34;95298.47;;;5.81;100.00
11810;BME280;5962;41.566;23.734;2024-03-08T04:08:02;95302.66;;;5.89;100.00
11810;BME280;5962;41.566;23.734;2024-03-08T04:10:30;95304.09;;;5.85;100.00
11810;BME280;5962;41.566;23.734;2024-03-08T04:12:58;95304.28;;;5.83;100.00
11810;BME280;5962;41.566;23.734;2024-03-08T04:15:26;95305.38;;;5.69;100.00
11810;BME280;5962;41.566;23.734;2024-03-08T04:17:54;95300.56;;;5.66;100.00
11810;BME280;5962;41.566;23.734;2024-03-08T04:20:24;95306.84;;;5.59;100.00
11810;BME280;5962;41.566;23.734;2024-03-08T04:22:53;95295.56;;;5.52;100.00
11810;BME280;5962;41.566;23.734;2024-03-08T04:25:21;95309.19;;;5.43;100.00
11810;BME280;5962;41.566;23.734;2024-03-08T04:27:49;95318.84;;;5.42;100.00
11810;BME280;5962;41.566;23.734;2024-03-08T04:30:19;95323.66;;;5.52;100.00
11810;BME280;5962;41.566;23.734;2024-03-08T04:32:48;95322.50;;;5.41;100.00
11810;BME280;5962;41.566;23.734;2024-03-08T04:35:16;95328.91;;;5.52;100.00
11810;BME280;5962;41.566;23.734;2024-03-08T04:37:44;95335.81;;;5.46;100.00
11810;BME280;5962;41.566;23.734;2024-03-08T04:40:13;95335.19;;;5.51;100.00
11810;BME280;5962;41.566;23.734;2024-03-08T04:42:42;95328.72;;;5.47;100.00
11810;BME280;5962;41.566;23.734;2024-03-08T04:45:10;95335.59;;;5.48;100.00
11810;BME280;5962;41.566;23.734;2024-03-08T04:47:38;95338.44;;;5.46;100.00
11810;BME280;5962;41.566;23.734;2024-03-08T04:50:07;95332.94;;;5.54;100.00
11810;BME280;5962;41.566;23.734;2024-03-08T04:52:36;95332.69;;;5.68;100.00
11810;BME280;5962;41.566;23.734;2024-03-08T04:55:05;95342.63;;;5.60;100.00
11810;BME280;5962;41.566;23.734;2024-03-08T04:57:35;95346.69;;;5.56;100.00
11810;BME280;5962;41.566;23.734;2024-03-08T05:00:04;95343.28;;;5.49;100.00
11810;BME280;5962;41.566;23.734;2024-03-08T05:02:37;95342.25;;;5.50;100.00
11810;BME280;5962;41.566;23.734;2024-03-08T05:05:06;95351.19;;;5.49;100.00
11810;BME280;5962;41.566;23.734;2024-03-08T05:07:34;95352.00;;;5.43;100.00
11810;BME280;5962;41.566;23.734;2024-03-08T05:10:02;95354.47;;;5.32;100.00
11810;BME280;5962;41.566;23.734;2024-03-08T05:12:31;95359.72;;;5.32;100.00
11810;BME280;5962;41.566;23.734;2024-03-08T05:15:00;95361.72;;;5.30;100.00
11810;BME280;5962;41.566;23.734;2024-03-08T05:17:28;95359.72;;;5.25;100.00
11810;BME280;5962;41.566;23.734;2024-03-08T05:19:56;95370.84;;;5.27;100.00
11810;BME280;5962;41.566;23.734;2024-03-08T05:22:24;95371.66;;;5.28;100.00
11810;BME280;5962;41.566;23.734;2024-03-08T05:24:52;95374.06;;;5.29;100.00
11810;BME280;5962;41.566;23.734;2024-03-08T05:27:20;95373.66;;;5.32;100.00
11810;BME280;5962;41.566;23.734;2024-03-08T05:29:49;95380.72;;;5.32;100.00
11810;BME280;5962;41.566;23.734;2024-03-08T05:32:18;95376.69;;;5.29;100.00
11810;BME280;5962;41.566;23.734;2024-03-08T05:34:46;95375.06;;;5.35;100.00
11810;BME280;5962;41.566;23.734;2024-03-08T05:37:14;95383.13;;;5.40;100.00
11810;BME280;5962;41.566;23.734;2024-03-08T05:39:42;95376.66;;;5.42;100.00
11810;BME280;5962;41.566;23.734;2024-03-08T05:42:11;95385.91;;;5.45;100.00
11810;BME280;5962;41.566;23.734;2024-03-08T05:44:39;95377.59;;;5.54;100.00
11810;BME280;5962;41.566;23.734;2024-03-08T05:47:07;95385.06;;;5.57;100.00
11810;BME280;5962;41.566;23.734;2024-03-08T05:49:36;95383.44;;;5.62;100.00
11810;BME280;5962;41.566;23.734;2024-03-08T05:52:06;95386.41;;;5.72;100.00
11810;BME280;5962;41.566;23.734;2024-03-08T05:54:34;95389.97;;;5.91;100.00
11810;BME280;5962;41.566;23.734;2024-03-08T05:57:02;95390.34;;;6.01;100.00
11810;BME280;5962;41.566;23.734;2024-03-08T05:59:30;95403.00;;;6.10;100.00
11810;BME280;5962;41.566;23.734;2024-03-08T06:01:58;95411.91;;;6.16;100.00
11810;BME280;5962;41.566;23.734;2024-03-08T06:04:26;95407.03;;;6.19;100.00
11810;BME280;5962;41.566;23.734;2024-03-08T06:06:55;95407.41;;;6.23;100.00
11810;BME280;5962;41.566;23.734;2024-03-08T06:09:25;95408.75;;;6.32;100.00
11810;BME280;5962;41.566;23.734;2024-03-08T06:11:53;95414.00;;;6.32;100.00
11810;BME280;5962;41.566;23.734;2024-03-08T06:14:21;95413.16;;;6.38;100.00
11810;BME280;5962;41.566;23.734;2024-03-08T06:16:50;95415.97;;;6.43;100.00
11810;BME280;5962;41.566;23.734;2024-03-08T06:19:18;95421.56;;;6.53;100.00
11810;BME280;5962;41.566;23.734;2024-03-08T06:21:46;95416.84;;;6.61;100.00
11810;BME280;5962;41.566;23.734;2024-03-08T06:24:15;95419.44;;;6.67;100.00
11810;BME280;5962;41.566;23.734;2024-03-08T06:26:44;95417.91;;;6.78;100.00
11810;BME280;5962;41.566;23.734;2024-03-08T06:29:12;95415.97;;;6.91;100.00
11810;BME280;5962;41.566;23.734;2024-03-08T06:31:42;95415.63;;;7.06;100.00
11810;BME280;5962;41.566;23.734;2024-03-08T06:34:10;95421.31;;;7.09;100.00
11810;BME280;5962;41.566;23.734;2024-03-08T06:36:38;95418.97;;;7.19;100.00
11810;BME280;5962;41.566;23.734;2024-03-08T06:39:06;95423.50;;;7.30;100.00
11810;BME280;5962;41.566;23.734;2024-03-08T06:41:37;95423.44;;;7.37;100.00
11810;BME280;5962;41.566;23.734;2024-03-08T06:44:05;95412.59;;;7.44;100.00
11810;BME280;5962;41.566;23.734;2024-03-08T06:46:34;95422.63;;;7.54;100.00
11810;BME280;5962;41.566;23.734;2024-03-08T06:49:02;95430.97;;;7.69;100.00
11810;BME280;5962;41.566;23.734;2024-03-08T06:51:30;95424.97;;;7.80;100.00
11810;BME280;5962;41.566;23.734;2024-03-08T06:53:59;95424.69;;;7.88;100.00
11810;BME280;5962;41.566;23.734;2024-03-08T06:56:27;95423.34;;;7.97;100.00
11810;BME280;5962;41.566;23.734;2024-03-08T06:58:57;95424.56;;;8.12;100.00
11810;BME280;5962;41.566;23.734;2024-03-08T07:01:25;95417.75;;;8.05;100.00
11810;BME280;5962;41.566;23.734;2024-03-08T07:03:54;95419.34;;;8.06;100.00
11810;BME280;5962;41.566;23.734;2024-03-08T07:06:23;95432.63;;;7.99;100.00
11810;BME280;5962;41.566;23.734;2024-03-08T07:08:51;95421.38;;;7.92;100.00
11810;BME280;5962;41.566;23.734;2024-03-08T07:11:19;95416.25;;;7.97;100.00
11810;BME280;5962;41.566;23.734;2024-03-08T07:13:48;95409.72;;;8.00;100.00
11810;BME280;5962;41.566;23.734;2024-03-08T07:16:17;95421.56;;;8.09;100.00
11810;BME280;5962;41.566;23.734;2024-03-08T07:18:45;95421.66;;;8.20;100.00
11810;BME280;5962;41.566;23.734;2024-03-08T07:21:13;95418.78;;;8.22;100.00
11810;BME280;5962;41.566;23.734;2024-03-08T07:23:41;95422.81;;;8.24;100.00
11810;BME280;5962;41.566;23.734;2024-03-08T07:26:29;95425.94;;;8.33;100.00
11810;BME280;5962;41.566;23.734;2024-03-08T07:28:58;95422.63;;;8.37;100.00
11810;BME280;5962;41.566;23.734;2024-03-08T07:31:28;95420.47;;;8.45;100.00
11810;BME280;5962;41.566;23.734;2024-03-08T07:34:11;95430.00;;;8.46;100.00
11810;BME280;5962;41.566;23.734;2024-03-08T07:36:39;95424.44;;;8.37;100.00
11810;BME280;5962;41.566;23.734;2024-03-08T07:39:07;95425.28;;;8.37;100.00
11810;BME280;5962;41.566;23.734;2024-03-08T07:41:38;95421.13;;;8.41;100.00
11810;BME280;5962;41.566;23.734;2024-03-08T07:44:07;95425.19;;;8.55;100.00
11810;BME280;5962;41.566;23.734;2024-03-08T07:46:37;95419.75;;;8.79;100.00
11810;BME280;5962;41.566;23.734;2024-03-08T07:49:05;95425.50;;;8.88;100.00
11810;BME280;5962;41.566;23.734;2024-03-08T07:51:37;95421.25;;;8.87;100.00
11810;BME280;5962;41.566;23.734;2024-03-08T07:54:05;95415.97;;;8.87;100.00
11810;BME280;5962;41.566;23.734;2024-03-08T07:56:36;95432.75;;;9.04;100.00
11810;BME280;5962;41.566;23.734;2024-03-08T07:59:04;95424.03;;;9.15;100.00
11810;BME280;5962;41.566;23.734;2024-03-08T08:01:32;95420.13;;;9.29;100.00
11810;BME280;5962;41.566;23.734;2024-03-08T08:04:01;95423.00;;;9.50;100.00
11810;BME280;5962;41.566;23.734;2024-03-08T08:06:29;95415.72;;;9.57;100.00
11810;BME280;5962;41.566;23.734;2024-03-08T08:08:59;95421.47;;;9.65;100.00
11810;BME280;5962;41.566;23.734;2024-03-08T08:11:28;95422.75;;;9.63;100.00
11810;BME280;5962;41.566;23.734;2024-03-08T08:13:56;95418.38;;;9.68;100.00
11810;BME280;5962;41.566;23.734;2024-03-08T08:16:26;95418.44;;;9.73;98.89
11810;BME280;5962;41.566;23.734;2024-03-08T08:18:54;95424.63;;;9.90;94.57
11810;BME280;5962;41.566;23.734;2024-03-08T08:21:23;95422.56;;;10.04;89.92
11810;BME280;5962;41.566;23.734;2024-03-08T08:23:52;95414.09;;;10.18;90.57
11810;BME280;5962;41.566;23.734;2024-03-08T08:26:21;95414.75;;;10.53;94.21
11810;BME280;5962;41.566;23.734;2024-03-08T08:28:52;95409.19;;;10.82;96.04
11810;BME280;5962;41.566;23.734;2024-03-08T08:31:21;95409.84;;;11.06;91.25
11810;BME280;5962;41.566;23.734;2024-03-08T08:33:49;95402.81;;;11.16;87.81
11810;BME280;5962;41.566;23.734;2024-03-08T08:36:19;95400.66;;;11.29;65.40
11810;BME280;5962;41.566;23.734;2024-03-08T08:38:48;95402.31;;;11.35;59.81
11810;BME280;5962;41.566;23.734;2024-03-08T08:41:16;95395.97;;;11.36;59.32
11810;BME280;5962;41.566;23.734;2024-03-08T08:43:44;95400.38;;;11.47;59.29
11810;BME280;5962;41.566;23.734;2024-03-08T08:46:16;95386.63;;;11.50;59.67
11810;BME280;5962;41.566;23.734;2024-03-08T08:48:46;95397.09;;;11.57;59.04
11810;BME280;5962;41.566;23.734;2024-03-08T08:51:14;95397.97;;;11.46;58.61
11810;BME280;5962;41.566;23.734;2024-03-08T08:53:42;95395.06;;;11.47;53.14
11810;BME280;5962;41.566;23.734;2024-03-08T08:56:13;95392.59;;;11.41;53.94
11810;BME280;5962;41.566;23.734;2024-03-08T08:58:42;95402.81;;;11.32;53.08
11810;BME280;5962;41.566;23.734;2024-03-08T09:01:10;95392.31;;;11.21;52.86
11810;BME280;5962;41.566;23.734;2024-03-08T09:03:39;95397.34;;;11.23;52.73
11810;BME280;5962;41.566;23.734;2024-03-08T09:06:07;95400.00;;;11.23;52.12
11810;BME280;5962;41.566;23.734;2024-03-08T09:08:36;95393.25;;;11.15;52.57
11810;BME280;5962;41.566;23.734;2024-03-08T09:11:04;95396.31;;;11.23;53.64
11810;BME280;5962;41.566;23.734;2024-03-08T09:13:34;95382.47;;;11.38;53.26
11810;BME280;5962;41.566;23.734;2024-03-08T09:16:02;95384.22;;;11.49;52.10
11810;BME280;5962;41.566;23.734;2024-03-08T09:18:31;95383.19;;;11.50;50.93
11810;BME280;5962;41.566;23.734;2024-03-08T09:21:00;95373.22;;;11.57;50.92
11810;BME280;5962;41.566;23.734;2024-03-08T09:23:28;95375.00;;;11.73;49.84
11810;BME280;5962;41.566;23.734;2024-03-08T09:25:56;95377.47;;;11.79;49.67
11810;BME280;5962;41.566;23.734;2024-03-08T09:28:25;95370.19;;;11.91;49.44
11810;BME280;5962;41.566;23.734;2024-03-08T09:30:55;95373.16;;;11.95;46.91
11810;BME280;5962;41.566;23.734;2024-03-08T09:33:25;95370.00;;;11.98;46.32
11810;BME280;5962;41.566;23.734;2024-03-08T09:35:55;95379.78;;;11.92;46.00
11810;BME280;5962;41.566;23.734;2024-03-08T09:38:24;95370.06;;;12.03;46.71
11810;BME280;5962;41.566;23.734;2024-03-08T09:40:52;95369.31;;;12.28;45.60
11810;BME280;5962;41.566;23.734;2024-03-08T09:43:23;95365.69;;;12.66;45.40
11810;BME280;5962;41.566;23.734;2024-03-08T09:45:52;95362.84;;;13.04;44.79
11810;BME280;5962;41.566;23.734;2024-03-08T09:48:22;95363.88;;;13.39;42.88
11810;BME280;5962;41.566;23.734;2024-03-08T09:50:50;95363.78;;;13.70;43.01
11810;BME280;5962;41.566;23.734;2024-03-08T09:53:18;95362.03;;;13.91;41.89
11810;BME280;5962;41.566;23.734;2024-03-08T09:55:48;95361.28;;;14.05;41.39
11810;BME280;5962;41.566;23.734;2024-03-08T09:58:17;95365.91;;;14.19;40.09
11810;BME280;5962;41.566;23.734;2024-03-08T10:01:03;95344.59;;;14.19;40.46
11810;BME280;5962;41.566;23.734;2024-03-08T10:03:33;95359.00;;;14.28;38.94
11810;BME280;5962;41.566;23.734;2024-03-08T10:06:01;95361.94;;;14.42;39.61
11810;BME280;5962;41.566;23.734;2024-03-08T10:08:29;95361.16;;;14.51;38.83
11810;BME280;5962;41.566;23.734;2024-03-08T10:10:57;95368.13;;;14.67;38.19
11810;BME280;5962;41.566;23.734;2024-03-08T10:13:26;95365.19;;;14.74;38.10
11810;BME280;5962;41.566;23.734;2024-03-08T10:15:54;95368.94;;;14.83;37.75
11810;BME280;5962;41.566;23.734;2024-03-08T10:18:22;95364.69;;;14.87;37.77
11810;BME280;5962;41.566;23.734;2024-03-08T10:21:05;95364.94;;;14.95;37.50
11810;BME280;5962;41.566;23.734;2024-03-08T10:23:36;95365.50;;;14.97;37.96
11810;BME280;5962;41.566;23.734;2024-03-08T10:26:11;95366.28;;;15.12;37.58
11810;BME280;5962;41.566;23.734;2024-03-08T10:28:41;95353.47;;;15.24;37.61
11810;BME280;5962;41.566;23.734;2024-03-08T10:31:11;95357.75;;;15.35;36.80
11810;BME280;5962;41.566;23.734;2024-03-08T10:33:40;95352.41;;;15.45;36.37
11810;BME280;5962;41.566;23.734;2024-03-08T10:36:10;95353.44;;;15.59;36.37
11810;BME280;5962;41.566;23.734;2024-03-08T10:38:40;95352.91;;;15.52;35.69
11810;BME280;5962;41.566;23.734;2024-03-08T10:41:09;95349.22;;;15.28;36.17
11810;BME280;5962;41.566;23.734;2024-03-08T10:43:52;95348.41;;;15.18;36.42
11810;BME280;5962;41.566;23.734;2024-03-08T10:46:30;95345.19;;;15.06;36.85
11810;BME280;5962;41.566;23.734;2024-03-08T10:49:00;95346.81;;;14.87;37.38
11810;BME280;5962;41.566;23.734;2024-03-08T10:51:34;95356.41;;;14.83;38.02
11810;BME280;5962;41.566;23.734;2024-03-08T10:54:05;95343.06;;;14.68;38.72
11810;BME280;5962;41.566;23.734;2024-03-08T10:56:33;95357.97;;;14.54;40.47
11810;BME280;5962;41.566;23.734;2024-03-08T10:59:02;95358.22;;;14.38;42.31
11810;BME280;5962;41.566;23.734;2024-03-08T11:01:31;95360.53;;;14.14;41.67
11810;BME280;5962;41.566;23.734;2024-03-08T11:03:59;95361.69;;;13.72;43.27
11810;BME280;5962;41.566;23.734;2024-03-08T11:06:30;95362.28;;;13.43;45.09
11810;BME280;5962;41.566;23.734;2024-03-08T11:09:00;95354.66;;;13.15;48.45
11810;BME280;5962;41.566;23.734;2024-03-08T11:11:29;95358.91;;;12.80;49.87
11810;BME280;5962;41.566;23.734;2024-03-08T11:13:59;95348.59;;;12.57;52.39
11810;BME280;5962;41.566;23.734;2024-03-08T11:16:38;95362.88;;;12.51;54.54
11810;BME280;5962;41.566;23.734;2024-03-08T11:19:26;95356.38;;;12.37;56.17
11810;BME280;5962;41.566;23.734;2024-03-08T11:22:02;95362.03;;;12.45;55.25
11810;BME280;5962;41.566;23.734;2024-03-08T11:24:38;95358.78;;;12.70;54.79
11810;BME280;5962;41.566;23.734;2024-03-08T11:27:10;95349.09;;;12.85;54.07
11810;BME280;5962;41.566;23.734;2024-03-08T11:29:38;95351.66;;;13.02;53.95
11810;BME280;5962;41.566;23.734;2024-03-08T11:32:11;95351.75;;;13.17;50.34
11810;BME280;5962;41.566;23.734;2024-03-08T11:34:40;95348.38;;;13.31;51.34
11810;BME280;5962;41.566;23.734;2024-03-08T11:37:13;95348.75;;;13.49;51.50
11810;BME280;5962;41.566;23.734;2024-03-08T11:39:48;95345.41;;;13.69;50.32
11810;BME280;5962;41.566;23.734;2024-03-08T11:42:17;95338.53;;;13.78;50.01
11810;BME280;5962;41.566;23.734;2024-03-08T11:44:45;95342.31;;;13.92;47.26
11810;BME280;5962;41.566;23.734;2024-03-08T11:47:14;95342.63;;;14.05;46.40
11810;BME280;5962;41.566;23.734;2024-03-08T11:49:43;95337.31;;;14.05;46.30
11810;BME280;5962;41.566;23.734;2024-03-08T11:52:13;95334.13;;;14.08;45.05
11810;BME280;5962;41.566;23.734;2024-03-08T11:54:41;95338.69;;;14.13;44.82
11810;BME280;5962;41.566;23.734;2024-03-08T11:57:11;95331.44;;;14.03;44.83
11810;BME280;5962;41.566;23.734;2024-03-08T11:59:39;95335.50;;;14.15;44.30
11810;BME280;5962;41.566;23.734;2024-03-08T12:02:08;95326.50;;;14.31;44.13
11810;BME280;5962;41.566;23.734;2024-03-08T12:04:37;95329.44;;;14.45;42.20
11810;BME280;5962;41.566;23.734;2024-03-08T12:21:35;95322.88;;;13.86;47.38
11810;BME280;5962;41.566;23.734;2024-03-08T12:24:05;95332.84;;;13.54;45.28
11810;BME280;5962;41.566;23.734;2024-03-08T12:26:36;95326.22;;;13.16;49.81
11810;BME280;5962;41.566;23.734;2024-03-08T12:29:21;95320.59;;;12.76;50.62
11810;BME280;5962;41.566;23.734;2024-03-08T12:31:51;95325.34;;;12.42;53.08
11810;BME280;5962;41.566;23.734;2024-03-08T12:34:20;95306.66;;;12.32;53.39
11810;BME280;5962;41.566;23.734;2024-03-08T12:36:51;95307.75;;;12.36;53.29
11810;BME280;5962;41.566;23.734;2024-03-08T12:39:21;95306.47;;;12.39;54.48
11810;BME280;5962;41.566;23.734;2024-03-08T12:41:53;95311.03;;;12.48;55.54
11810;BME280;5962;41.566;23.734;2024-03-08T12:44:23;95309.81;;;12.61;55.37
11810;BME280;5962;41.566;23.734;2024-03-08T12:46:52;95303.81;;;12.70;57.72
11810;BME280;5962;41.566;23.734;2024-03-08T12:49:20;95301.31;;;12.90;57.07
11810;BME280;5962;41.566;23.734;2024-03-08T12:51:50;95310.44;;;13.04;56.31
11810;BME280;5962;41.566;23.734;2024-03-08T12:54:19;95306.59;;;13.26;55.36
11810;BME280;5962;41.566;23.734;2024-03-08T12:56:50;95309.66;;;13.50;55.56
11810;BME280;5962;41.566;23.734;2024-03-08T12:59:20;95312.97;;;13.77;53.00
11810;BME280;5962;41.566;23.734;2024-03-08T13:01:50;95306.91;;;13.96;51.52
11810;BME280;5962;41.566;23.734;2024-03-08T13:04:20;95314.47;;;14.24;48.26
11810;BME280;5962;41.566;23.734;2024-03-08T13:06:48;95310.50;;;14.36;50.64
11810;BME280;5962;41.566;23.734;2024-03-08T13:09:20;95308.38;;;14.43;50.47
11810;BME280;5962;41.566;23.734;2024-03-08T13:11:49;95302.53;;;14.41;49.79
11810;BME280;5962;41.566;23.734;2024-03-08T13:14:17;95316.63;;;14.32;50.19
11810;BME280;5962;41.566;23.734;2024-03-08T13:16:44;95312.38;;;14.26;49.38
11810;BME280;5962;41.566;23.734;2024-03-08T13:19:14;95313.94;;;14.22;48.84
11810;BME280;5962;41.566;23.734;2024-03-08T13:21:42;95312.06;;;14.22;49.18
11810;BME280;5962;41.566;23.734;2024-03-08T13:24:15;95314.72;;;14.22;48.53